createdAt,value
2018-01-25T00:02:15.832Z,6.10
2018-01-25T00:04:44.177Z,6.30
2018-01-25T00:07:13.263Z,6.40
2018-01-25T00:09:42.379Z,6.50
2018-01-25T00:12:10.679Z,6.50
2018-01-25T00:14:38.998Z,6.60
2018-01-25T00:17:07.302Z,6.60
2018-01-25T00:19:36.381Z,6.90
2018-01-25T00:22:04.671Z,6.80
2018-01-25T00:24:33.106Z,7.10
2018-01-25T00:27:01.427Z,7.00
2018-01-25T00:29:30.519Z,7.30
2018-01-25T00:31:59.647Z,7.20
2018-01-25T00:34:28.739Z,7.40
2018-01-25T00:36:57.790Z,7.60
2018-01-25T00:39:26.128Z,7.60
2018-01-25T00:41:54.429Z,7.60
2018-01-25T00:44:22.731Z,7.60
2018-01-25T00:46:51.069Z,7.60
2018-01-25T00:49:19.381Z,7.70
2018-01-25T00:51:47.712Z,7.80
2018-01-25T00:54:16.029Z,7.90
2018-01-25T00:56:44.352Z,7.80
2018-01-25T00:59:13.418Z,7.90
2018-01-25T01:01:41.756Z,7.90
2018-01-25T01:04:10.063Z,7.90
2018-01-25T01:06:38.384Z,7.90
2018-01-25T01:09:07.451Z,8.10
2018-01-25T01:11:35.765Z,8.00
2018-01-25T01:14:04.191Z,8.10
2018-01-25T01:16:32.567Z,8.10
2018-01-25T01:19:00.862Z,8.20
2018-01-25T01:21:29.163Z,8.30
2018-01-25T01:23:58.308Z,8.30
2018-01-25T01:26:26.616Z,8.30
2018-01-25T01:28:54.930Z,8.40
2018-01-25T01:31:23.252Z,8.40
2018-01-25T01:33:51.575Z,8.30
2018-01-25T01:36:19.886Z,8.30
2018-01-25T01:38:48.227Z,8.30
2018-01-25T01:41:17.299Z,8.40
2018-01-25T01:43:45.632Z,8.40
2018-01-25T01:46:13.948Z,8.40
2018-01-25T01:48:42.282Z,8.40
2018-01-25T01:51:10.589Z,8.40
2018-01-25T01:53:38.915Z,8.30
2018-01-25T01:56:07.994Z,8.10
2018-01-25T01:58:36.314Z,8.10
2018-01-25T02:01:04.621Z,8.10
2018-01-25T02:03:32.928Z,8.10
2018-01-25T02:06:02.063Z,8.00
2018-01-25T02:08:30.392Z,8.00
2018-01-25T02:10:58.707Z,8.00
2018-01-25T02:13:27.060Z,8.00
2018-01-25T02:15:56.171Z,8.00
2018-01-25T02:18:25.242Z,8.00
2018-01-25T02:20:53.562Z,8.00
2018-01-25T02:23:22.619Z,8.10
2018-01-25T02:25:50.952Z,8.10
2018-01-25T02:28:19.280Z,8.00
2018-01-25T02:30:47.619Z,8.00
2018-01-25T02:33:15.926Z,8.00
2018-01-25T02:35:44.246Z,7.90
2018-01-25T02:38:13.315Z,7.70
2018-01-25T02:40:41.637Z,7.60
2018-01-25T02:43:09.964Z,7.60
2018-01-25T02:45:38.347Z,7.60
2018-01-25T02:48:06.659Z,7.60
2018-01-25T02:50:34.977Z,7.70
2018-01-25T02:53:03.336Z,7.70
2018-01-25T02:55:32.503Z,7.90
2018-01-25T02:58:01.580Z,8.10
2018-01-25T03:00:29.916Z,8.10
2018-01-25T03:02:58.285Z,8.10
2018-01-25T03:05:26.650Z,8.10
2018-01-25T03:07:55.713Z,8.10
2018-01-25T03:10:24.034Z,8.10
2018-01-25T03:12:52.347Z,8.10
2018-01-25T03:15:20.689Z,8.10
2018-01-25T03:17:48.979Z,8.10
2018-01-25T03:20:17.315Z,8.10
2018-01-25T03:22:45.676Z,8.10
2018-01-25T03:25:14.017Z,8.10
2018-01-25T03:27:42.352Z,8.10
2018-01-25T03:30:10.654Z,8.10
2018-01-25T03:32:38.994Z,8.00
2018-01-25T03:35:07.299Z,8.10
2018-01-25T03:37:36.392Z,8.10
2018-01-25T03:40:05.478Z,8.30
2018-01-25T03:42:33.879Z,8.20
2018-01-25T03:45:07.392Z,8.10
2018-01-25T03:47:35.711Z,8.10
2018-01-25T03:50:04.025Z,8.10
2018-01-25T03:52:33.124Z,8.20
2018-01-25T03:55:02.176Z,8.20
2018-01-25T03:57:30.507Z,8.20
2018-01-25T03:59:59.567Z,8.20
2018-01-25T04:02:27.915Z,8.20
2018-01-25T04:04:56.231Z,8.20
2018-01-25T04:07:24.526Z,8.20
2018-01-25T04:09:53.617Z,8.30
2018-01-25T04:12:21.922Z,8.30
2018-01-25T04:14:50.235Z,8.30
2018-01-25T04:17:18.534Z,8.30
2018-01-25T04:19:46.851Z,8.30
2018-01-25T04:22:15.147Z,8.30
2018-01-25T04:24:43.463Z,8.30
2018-01-25T04:27:11.770Z,8.30
2018-01-25T04:29:40.875Z,8.40
2018-01-25T04:32:09.960Z,8.40
2018-01-25T04:34:39.042Z,8.50
2018-01-25T04:37:07.347Z,8.50
2018-01-25T04:39:36.440Z,8.60
2018-01-25T04:42:04.738Z,8.60
2018-01-25T04:44:33.040Z,8.70
2018-01-25T04:47:01.355Z,8.70
2018-01-25T04:49:29.662Z,8.60
2018-01-25T04:51:57.976Z,8.80
2018-01-25T04:54:26.300Z,8.80
2018-01-25T04:56:54.609Z,8.80
2018-01-25T04:59:22.910Z,8.80
2018-01-25T05:01:51.239Z,8.90
2018-01-25T05:04:20.307Z,8.90
2018-01-25T05:06:48.618Z,8.80
2018-01-25T05:09:17.688Z,9.00
2018-01-25T05:11:46.002Z,9.00
2018-01-25T05:14:14.311Z,9.00
2018-01-25T05:20:00.998Z,9.10
2018-01-25T05:22:30.084Z,9.10
2018-01-25T05:24:58.383Z,9.20
2018-01-25T05:27:26.704Z,9.20
2018-01-25T05:29:54.995Z,9.10
2018-01-25T05:32:23.319Z,9.20
2018-01-25T05:34:52.388Z,9.40
2018-01-25T05:37:20.708Z,9.40
2018-01-25T05:39:49.036Z,9.40
2018-01-25T05:42:17.329Z,9.40
2018-01-25T05:44:45.653Z,9.60
2018-01-25T05:47:13.944Z,9.60
2018-01-25T05:49:42.267Z,9.60
2018-01-25T05:52:11.329Z,9.60
2018-01-25T05:54:39.656Z,9.60
2018-01-25T05:57:08.718Z,9.60
2018-01-25T05:59:37.066Z,9.60
2018-01-25T06:02:05.367Z,9.70
2018-01-25T06:04:33.666Z,9.60
2018-01-25T06:07:02.764Z,9.60
2018-01-25T06:09:31.064Z,9.60
2018-01-25T06:11:59.388Z,9.60
2018-01-25T06:14:27.714Z,9.70
2018-01-25T06:16:56.787Z,9.80
2018-01-25T06:19:25.086Z,9.80
2018-01-25T06:21:54.177Z,9.70
2018-01-25T06:24:23.236Z,9.80
2018-01-25T06:26:51.551Z,9.80
2018-01-25T06:29:20.613Z,9.80
2018-01-25T06:31:48.928Z,9.70
2018-01-25T06:34:17.984Z,9.80
2018-01-25T06:36:46.303Z,9.80
2018-01-25T06:39:15.376Z,9.90
2018-01-25T06:41:43.697Z,9.90
2018-01-25T06:44:12.002Z,9.80
2018-01-25T06:46:40.312Z,9.80
2018-01-25T06:49:08.613Z,9.80
2018-01-25T06:51:37.719Z,9.90
2018-01-25T06:54:06.777Z,9.90
2018-01-25T06:56:35.096Z,9.90
2018-01-25T06:59:03.399Z,9.90
2018-01-25T07:01:31.720Z,9.90
2018-01-25T07:04:00.029Z,9.90
2018-01-25T07:06:29.116Z,9.90
2018-01-25T07:08:58.201Z,9.90
2018-01-25T07:11:27.299Z,10.00
2018-01-25T07:13:56.384Z,10.00
2018-01-25T07:16:24.697Z,10.00
2018-01-25T07:18:53.019Z,9.90
2018-01-25T07:21:21.326Z,9.90
2018-01-25T07:23:49.648Z,9.90
2018-01-25T07:26:17.939Z,9.90
2018-01-25T07:28:46.261Z,9.90
2018-01-25T07:31:14.556Z,9.80
2018-01-25T07:33:43.627Z,9.90
2018-01-25T07:36:11.934Z,9.90
2018-01-25T07:38:40.265Z,9.90
2018-01-25T07:41:08.569Z,9.90
2018-01-25T07:43:37.676Z,9.90
2018-01-25T07:46:06.749Z,9.90
2018-01-25T07:48:35.063Z,9.90
2018-01-25T07:51:03.366Z,9.90
2018-01-25T07:53:31.689Z,9.90
2018-01-25T07:55:59.988Z,10.00
2018-01-25T07:58:28.329Z,10.00
2018-01-25T08:00:56.639Z,10.00
2018-01-25T08:03:25.723Z,10.00
2018-01-25T08:05:54.038Z,10.00
2018-01-25T08:08:22.368Z,10.00
2018-01-25T08:10:50.673Z,10.10
2018-01-25T08:13:25.395Z,10.00
2018-01-25T08:16:00.127Z,10.10
2018-01-25T08:18:29.226Z,10.10
2018-01-25T08:20:58.292Z,10.10
2018-01-25T08:23:26.587Z,10.10
2018-01-25T08:25:55.678Z,10.10
2018-01-25T08:28:23.977Z,10.10
2018-01-25T08:30:53.083Z,10.20
2018-01-25T08:33:21.388Z,10.20
2018-01-25T08:35:49.717Z,10.20
2018-01-25T08:38:18.023Z,10.30
2018-01-25T08:40:46.344Z,10.30
2018-01-25T08:43:14.648Z,10.40
2018-01-25T08:45:42.968Z,10.30
2018-01-25T08:48:11.274Z,10.40
2018-01-25T08:50:39.600Z,10.40
2018-01-25T08:53:08.672Z,10.40
2018-01-25T08:55:37.006Z,10.40
2018-01-25T08:58:05.313Z,10.40
2018-01-25T09:00:33.620Z,10.30
2018-01-25T09:03:02.755Z,10.40
2018-01-25T09:05:31.039Z,10.40
2018-01-25T09:08:00.133Z,10.50
2018-01-25T09:10:28.443Z,10.50
2018-01-25T09:12:56.763Z,10.50
2018-01-25T09:15:25.069Z,10.60
2018-01-25T09:17:53.399Z,10.60
2018-01-25T09:20:22.467Z,10.70
2018-01-25T09:22:50.801Z,10.70
2018-01-25T09:25:19.133Z,10.70
2018-01-25T09:27:47.463Z,10.80
2018-01-25T09:30:15.897Z,10.80
2018-01-25T09:32:44.207Z,10.80
2018-01-25T09:35:12.504Z,10.90
2018-01-25T09:37:40.836Z,10.90
2018-01-25T09:40:09.137Z,10.90
2018-01-25T09:42:38.238Z,11.00
2018-01-25T09:45:07.359Z,11.00
2018-01-25T09:47:35.682Z,11.00
2018-01-25T09:50:03.987Z,11.00
2018-01-25T09:52:33.087Z,11.10
2018-01-25T09:55:02.153Z,11.10
2018-01-25T09:57:30.484Z,11.10
2018-01-25T09:59:58.850Z,11.10
2018-01-25T10:02:27.157Z,11.20
2018-01-25T10:04:55.522Z,11.10
2018-01-25T10:07:23.818Z,11.10
2018-01-25T10:09:52.145Z,11.20
2018-01-25T10:12:21.223Z,11.10
2018-01-25T10:14:49.536Z,11.10
2018-01-25T10:17:17.832Z,11.20
2018-01-25T10:19:46.146Z,11.20
2018-01-25T10:22:14.463Z,11.30
2018-01-25T10:24:43.561Z,11.30
2018-01-25T10:27:12.622Z,11.30
2018-01-25T10:29:40.953Z,11.30
2018-01-25T10:32:09.260Z,11.40
2018-01-25T10:34:37.606Z,11.40
2018-01-25T10:37:05.918Z,11.30
2018-01-25T10:39:34.246Z,11.40
2018-01-25T10:42:03.319Z,11.30
2018-01-25T10:44:31.656Z,11.30
2018-01-25T10:46:59.965Z,11.30
2018-01-25T10:49:28.313Z,11.40
2018-01-25T10:51:57.380Z,11.30
2018-01-25T10:54:25.721Z,11.30
2018-01-25T10:56:54.062Z,11.30
2018-01-25T10:59:22.385Z,11.30
2018-01-25T11:01:56.301Z,11.30
2018-01-25T11:04:24.621Z,11.30
2018-01-25T11:06:52.924Z,11.30
2018-01-25T11:09:21.244Z,11.30
2018-01-25T11:11:50.314Z,11.50
2018-01-25T11:14:18.639Z,11.40
2018-01-25T11:16:46.947Z,11.50
2018-01-25T11:19:15.290Z,11.50
2018-01-25T11:21:44.355Z,11.50
2018-01-25T11:24:12.655Z,11.50
2018-01-25T11:26:41.752Z,11.70
2018-01-25T11:29:10.824Z,11.70
2018-01-25T11:31:41.115Z,11.70
2018-01-25T11:34:09.391Z,11.70
2018-01-25T11:36:37.722Z,11.70
2018-01-25T11:39:06.795Z,11.70
2018-01-25T11:41:35.119Z,11.70
2018-01-25T11:44:03.429Z,11.80
2018-01-25T11:46:31.750Z,11.80
2018-01-25T11:49:00.829Z,11.90
2018-01-25T11:51:29.165Z,11.90
2018-01-25T11:53:57.475Z,12.00
2018-01-25T11:56:25.808Z,12.00
2018-01-25T11:58:54.123Z,12.00
2018-01-25T12:01:22.435Z,12.00
2018-01-25T12:03:50.748Z,12.10
2018-01-25T12:06:19.061Z,12.10
2018-01-25T12:11:47.935Z,12.10
2018-01-25T12:14:16.237Z,12.00
2018-01-25T12:16:44.549Z,12.00
2018-01-25T12:19:12.867Z,11.90
2018-01-25T12:21:41.163Z,11.70
2018-01-25T12:24:10.260Z,11.70
2018-01-25T12:26:39.336Z,11.70
2018-01-25T12:29:07.685Z,11.70
2018-01-25T12:31:35.994Z,11.70
2018-01-25T12:34:07.681Z,11.70
2018-01-25T12:36:35.987Z,11.70
2018-01-25T12:39:04.324Z,11.70
2018-01-25T12:41:32.629Z,11.70
2018-01-25T12:44:00.943Z,11.50
2018-01-25T12:46:30.017Z,11.60
2018-01-25T12:48:58.335Z,11.50
2018-01-25T12:51:26.645Z,11.60
2018-01-25T12:53:54.962Z,11.60
2018-01-25T12:56:23.273Z,11.60
2018-01-25T12:58:51.623Z,11.60
2018-01-25T13:01:19.931Z,11.50
2018-01-25T13:03:48.234Z,11.60
2018-01-25T13:06:17.344Z,11.60
2018-01-25T13:08:45.641Z,11.60
2018-01-25T13:11:13.971Z,11.60
2018-01-25T13:13:42.290Z,11.50
2018-01-25T13:16:10.614Z,11.50
2018-01-25T13:18:38.926Z,11.50
2018-01-25T13:21:07.261Z,11.40
2018-01-25T13:23:36.350Z,11.40
2018-01-25T13:26:05.454Z,11.40
2018-01-25T13:28:34.531Z,11.40
2018-01-25T13:31:02.879Z,11.40
2018-01-25T13:33:36.900Z,11.40
2018-01-25T13:36:05.237Z,11.40
2018-01-25T13:38:33.531Z,11.30
2018-01-25T13:41:04.892Z,11.30
2018-01-25T13:43:33.191Z,11.30
2018-01-25T13:46:01.527Z,11.30
2018-01-25T13:48:29.877Z,11.30
2018-01-25T13:50:58.939Z,11.30
2018-01-25T13:53:27.273Z,11.30
2018-01-25T13:55:55.580Z,11.30
2018-01-25T13:58:23.900Z,11.40
2018-01-25T14:00:52.202Z,11.30
2018-01-25T14:03:20.551Z,11.30
2018-01-25T14:05:48.859Z,11.30
2018-01-25T14:08:17.190Z,11.30
2018-01-25T14:10:45.509Z,11.40
2018-01-25T14:13:13.835Z,11.30
2018-01-25T14:15:42.138Z,11.30
2018-01-25T14:18:10.480Z,11.20
2018-01-25T14:20:38.779Z,11.20
2018-01-25T14:23:07.079Z,11.10
2018-01-25T14:25:35.404Z,11.20
2018-01-25T14:28:03.702Z,11.10
2018-01-25T14:30:32.032Z,11.20
2018-01-25T14:33:01.109Z,11.30
2018-01-25T14:35:29.448Z,11.20
2018-01-25T14:37:57.758Z,11.20
2018-01-25T14:40:26.084Z,11.30
2018-01-25T14:42:54.382Z,11.30
2018-01-25T14:45:22.706Z,11.20
2018-01-25T14:47:51.787Z,11.30
2018-01-25T14:50:20.105Z,11.30
2018-01-25T14:52:48.408Z,11.30
2018-01-25T14:55:16.743Z,11.30
2018-01-25T14:57:45.815Z,11.30
2018-01-25T15:00:14.157Z,11.30
2018-01-25T15:02:42.468Z,11.30
2018-01-25T15:05:10.812Z,11.30
2018-01-25T15:07:39.135Z,11.30
2018-01-25T15:10:07.467Z,11.20
2018-01-25T15:12:35.780Z,11.30
2018-01-25T15:15:04.118Z,11.20
2018-01-25T15:17:32.421Z,11.20
2018-01-25T15:20:00.748Z,11.10
2018-01-25T15:22:36.356Z,11.10
2018-01-25T15:25:10.401Z,11.20
2018-01-25T15:27:38.708Z,11.10
2018-01-25T15:30:07.044Z,11.10
2018-01-25T15:32:35.352Z,11.00
2018-01-25T15:35:04.451Z,10.90
2018-01-25T15:37:33.520Z,10.90
2018-01-25T15:40:01.859Z,10.90
2018-01-25T15:42:30.167Z,10.80
2018-01-25T15:44:58.497Z,10.50
2018-01-25T15:47:26.845Z,10.50
2018-01-25T15:49:55.151Z,10.40
2018-01-25T15:52:23.452Z,10.40
2018-01-25T15:54:51.792Z,10.50
2018-01-25T15:57:20.102Z,10.20
2018-01-25T15:59:49.204Z,10.20
2018-01-25T16:02:17.512Z,10.20
2018-01-25T16:04:45.832Z,10.10
2018-01-25T16:07:14.131Z,10.20
2018-01-25T16:09:42.477Z,10.20
2018-01-25T16:12:11.545Z,10.30
2018-01-25T16:14:39.891Z,10.20
2018-01-25T16:17:08.201Z,10.10
2018-01-25T16:19:36.546Z,9.90
2018-01-25T16:22:04.840Z,9.90
2018-01-25T16:24:33.137Z,10.00
2018-01-25T16:27:01.481Z,10.10
2018-01-25T16:29:29.799Z,10.10
2018-01-25T16:31:58.132Z,10.00
2018-01-25T16:34:26.432Z,9.80
2018-01-25T16:36:54.757Z,9.20
2018-01-25T16:39:23.832Z,8.90
2018-01-25T16:41:52.149Z,8.80
2018-01-25T16:44:20.440Z,8.90
2018-01-25T16:46:48.761Z,8.70
2018-01-25T16:49:17.093Z,8.80
2018-01-25T16:51:45.391Z,9.10
2018-01-25T16:54:13.701Z,9.20
2018-01-25T16:56:42.011Z,9.40
2018-01-25T16:59:10.311Z,9.40
2018-01-25T17:01:38.650Z,9.50
2018-01-25T17:04:07.711Z,9.40
2018-01-25T17:06:36.032Z,9.40
2018-01-25T17:09:05.156Z,9.50
2018-01-25T17:11:33.525Z,9.40
2018-01-25T17:14:01.840Z,9.50
2018-01-25T17:16:30.156Z,9.20
2018-01-25T17:18:58.539Z,8.90
2018-01-25T17:21:27.604Z,8.50
2018-01-25T17:23:55.930Z,8.40
2018-01-25T17:26:24.999Z,8.40
2018-01-25T17:28:53.332Z,8.50
2018-01-25T17:31:21.640Z,8.30
2018-01-25T17:33:50.008Z,8.40
2018-01-25T17:36:18.364Z,8.50
2018-01-25T17:38:46.726Z,8.50
2018-01-25T17:41:15.030Z,8.50
2018-01-25T17:43:43.352Z,8.50
2018-01-25T17:46:11.652Z,8.40
2018-01-25T17:48:40.792Z,8.20
2018-01-25T17:51:09.095Z,8.20
2018-01-25T17:53:37.491Z,8.30
2018-01-25T17:56:06.623Z,8.20
2018-01-25T17:58:34.987Z,8.20
2018-01-25T18:01:03.284Z,8.10
2018-01-25T18:03:31.667Z,8.10
2018-01-25T18:05:59.964Z,8.20
2018-01-25T18:08:28.292Z,8.40
2018-01-25T18:10:57.417Z,8.40
2018-01-25T18:13:25.747Z,8.40
2018-01-25T18:15:54.111Z,8.50
2018-01-25T18:18:22.480Z,8.50
2018-01-25T18:20:50.783Z,8.50
2018-01-25T18:23:19.895Z,8.40
2018-01-25T18:25:49.008Z,8.40
2018-01-25T18:28:18.139Z,8.40
2018-01-25T18:30:46.429Z,8.40
2018-01-25T18:33:14.807Z,8.20
2018-01-25T18:35:43.117Z,8.20
2018-01-25T18:38:11.437Z,8.20
2018-01-25T18:40:39.798Z,8.20
2018-01-25T18:43:08.115Z,8.20
2018-01-25T18:45:36.463Z,8.30
2018-01-25T18:48:04.847Z,8.10
2018-01-25T18:50:33.152Z,8.00
2018-01-25T18:53:01.502Z,7.90
2018-01-25T18:55:29.875Z,7.70
2018-01-25T18:57:58.232Z,7.80
2018-01-25T19:00:26.555Z,7.80
2018-01-25T19:02:54.912Z,7.90
2018-01-25T19:05:23.257Z,7.90
2018-01-25T19:07:51.567Z,7.90
2018-01-25T19:10:19.945Z,7.70
2018-01-25T19:12:48.295Z,7.80
2018-01-25T19:15:16.667Z,7.80
2018-01-25T19:17:44.968Z,7.80
2018-01-25T19:20:14.064Z,7.80
2018-01-25T19:22:43.148Z,7.80
2018-01-25T19:25:11.472Z,7.70
2018-01-25T19:27:39.832Z,8.00
2018-01-25T19:30:08.198Z,8.10
2018-01-25T19:32:37.309Z,8.30
2018-01-25T19:35:05.694Z,8.30
2018-01-25T19:37:34.048Z,8.40
2018-01-25T19:40:02.424Z,8.20
2018-01-25T19:42:30.728Z,8.30
2018-01-25T19:44:59.103Z,8.30
2018-01-25T19:47:28.165Z,8.40
2018-01-25T19:49:56.535Z,8.40
2018-01-25T19:52:24.886Z,8.40
2018-01-25T19:54:53.255Z,8.50
2018-01-25T19:57:21.554Z,8.30
2018-01-25T19:59:50.691Z,8.20
2018-01-25T20:02:19.041Z,8.20
2018-01-25T20:04:47.399Z,8.30
2018-01-25T20:07:15.713Z,8.30
2018-01-25T20:09:44.079Z,8.40
2018-01-25T20:12:12.440Z,8.50
2018-01-25T20:14:40.759Z,8.60
2018-01-25T20:17:09.099Z,8.70
2018-01-25T20:19:37.460Z,8.70
2018-01-25T20:22:05.805Z,8.70
2018-01-25T20:24:34.182Z,8.80
2018-01-25T20:27:02.530Z,8.80
2018-01-25T20:29:30.883Z,8.70
2018-01-25T20:31:59.225Z,8.80
2018-01-25T20:34:27.544Z,8.70
2018-01-25T20:36:55.900Z,8.70
2018-01-25T20:39:25.034Z,8.60
2018-01-25T20:41:53.386Z,8.60
2018-01-25T20:44:21.776Z,8.70
2018-01-25T20:46:50.132Z,8.70
2018-01-25T20:49:19.263Z,8.70
2018-01-25T20:51:47.607Z,8.70
2018-01-25T20:54:16.700Z,8.80
2018-01-25T20:56:45.862Z,8.80
2018-01-25T20:59:14.241Z,8.70
2018-01-25T21:01:42.533Z,8.80
2018-01-25T21:04:10.889Z,8.80
2018-01-25T21:06:39.260Z,8.80
2018-01-25T21:09:08.614Z,8.80
2018-01-25T21:11:37.700Z,8.80
2018-01-25T21:14:06.990Z,8.80
2018-01-25T21:16:35.372Z,8.80
2018-01-25T21:19:03.717Z,8.70
2018-01-25T21:21:32.049Z,8.70
2018-01-25T21:24:01.165Z,8.70
2018-01-25T21:26:29.513Z,8.70
2018-01-25T21:28:57.863Z,8.70
2018-01-25T21:31:26.204Z,8.80
2018-01-25T21:33:54.550Z,8.90
2018-01-25T21:36:22.863Z,8.90
2018-01-25T21:38:51.235Z,8.80
2018-01-25T21:41:19.599Z,8.80
2018-01-25T21:43:47.899Z,8.80
2018-01-25T21:46:16.226Z,8.80
2018-01-25T21:48:44.536Z,8.90
2018-01-25T21:51:13.669Z,8.90
2018-01-25T21:53:41.999Z,8.80
2018-01-25T21:56:10.308Z,8.90
2018-01-25T21:58:39.084Z,8.90
2018-01-25T22:01:08.175Z,8.90
2018-01-25T22:03:37.286Z,8.80
2018-01-25T22:06:05.637Z,8.80
2018-01-25T22:08:40.162Z,8.80
2018-01-25T22:11:09.309Z,8.80
2018-01-25T22:13:37.596Z,8.80
2018-01-25T22:16:05.896Z,8.80
2018-01-25T22:18:34.223Z,8.90
2018-01-25T22:21:02.525Z,8.90
2018-01-25T22:23:30.847Z,8.90
2018-01-25T22:25:59.157Z,8.90
2018-01-25T22:28:27.525Z,8.90
2018-01-25T22:30:55.877Z,8.90
2018-01-25T22:33:24.190Z,8.90
2018-01-25T22:35:52.546Z,8.80
2018-01-25T22:38:20.857Z,8.80
2018-01-25T22:40:49.155Z,8.80
2018-01-25T22:43:17.466Z,8.90
2018-01-25T22:45:45.764Z,8.90
2018-01-25T22:48:14.855Z,8.90
2018-01-25T22:50:43.144Z,8.90
2018-01-25T22:53:12.226Z,8.80
2018-01-25T22:55:41.363Z,8.90
2018-01-25T22:58:09.751Z,8.90
2018-01-25T23:00:40.048Z,8.90
2018-01-25T23:03:09.196Z,8.80
2018-01-25T23:05:37.530Z,8.80
2018-01-25T23:08:05.893Z,8.80
2018-01-25T23:10:35.037Z,8.90
2018-01-25T23:13:03.416Z,8.90
2018-01-25T23:15:31.758Z,8.80
2018-01-25T23:18:00.828Z,8.50
2018-01-25T23:20:29.942Z,8.50
2018-01-25T23:22:59.022Z,8.40
2018-01-25T23:25:27.354Z,8.40
2018-01-25T23:27:55.665Z,8.40
2018-01-25T23:30:23.988Z,8.40
2018-01-25T23:32:52.324Z,8.50
2018-01-25T23:35:20.637Z,8.50
2018-01-25T23:37:49.782Z,8.40
2018-01-25T23:40:18.086Z,8.40
2018-01-25T23:42:46.418Z,8.60
2018-01-25T23:45:14.712Z,8.60
2018-01-25T23:47:43.037Z,8.70
2018-01-25T23:50:11.353Z,8.70
2018-01-25T23:52:39.666Z,8.80
2018-01-25T23:55:07.963Z,8.80
2018-01-25T23:57:36.287Z,8.80
